Time;durP1;ratioP1;P1;durP2;ratioP2;P2;SDS_P1;SDS_P2;PMS_P1;PMS_P2;Temp;Humidity;BMP_temperature;BMP_pressure;BME280_temperature;BME280_humidity;BME280_pressure;Samples;Min_cycle;Max_cycle;Signal;HPM_P1;HPM_P2
2021/06/18 00:01:22;;;;;;;9.02;6.00;;;25.10;66.20;;;;;;5052469;28;20020;-78
2021/06/18 00:03:51;;;;;;;8.98;5.38;;;25.00;66.60;;;;;;5053021;28;20021;-78
2021/06/18 00:06:17;;;;;;;9.95;5.90;;;25.00;66.80;;;;;;5050951;28;20530;-77
2021/06/18 00:08:43;;;;;;;10.70;6.72;;;25.00;66.80;;;;;;5051495;28;20551;-76
2021/06/18 00:11:09;;;;;;;10.32;7.07;;;25.00;67.00;;;;;;5052187;28;20043;-77
2021/06/18 00:13:35;;;;;;;9.68;6.85;;;24.90;67.20;;;;;;5052912;28;20476;-76
2021/06/18 00:16:00;;;;;;;10.80;6.25;;;25.00;67.30;;;;;;5051603;28;20029;-77
2021/06/18 00:18:26;;;;;;;9.57;6.25;;;25.00;67.40;;;;;;5050823;28;20021;-77
2021/06/18 00:20:52;;;;;;;9.57;6.72;;;24.90;67.30;;;;;;5052955;28;20048;-77
2021/06/18 00:23:18;;;;;;;12.13;7.57;;;24.90;67.50;;;;;;5051869;28;20021;-77
2021/06/18 00:25:44;;;;;;;11.57;7.65;;;24.90;67.60;;;;;;5051298;28;20013;-77
2021/06/18 00:28:13;;;;;;;12.43;8.30;;;24.90;67.70;;;;;;5050694;28;20132;-78
2021/06/18 00:30:39;;;;;;;10.45;6.93;;;24.80;67.80;;;;;;5051000;28;20024;-77
2021/06/18 00:33:05;;;;;;;10.73;6.25;;;24.70;68.00;;;;;;5050556;28;20035;-77
2021/06/18 00:35:31;;;;;;;11.48;6.85;;;24.60;68.20;;;;;;5052531;28;20043;-77
2021/06/18 00:37:57;;;;;;;11.18;7.68;;;24.60;68.30;;;;;;5052457;28;20107;-78
2021/06/18 00:40:22;;;;;;;12.63;6.97;;;24.60;68.50;;;;;;5051515;28;20104;-77
2021/06/18 00:42:48;;;;;;;9.38;6.22;;;24.50;68.40;;;;;;5052367;28;20063;-76
2021/06/18 00:45:14;;;;;;;11.13;7.80;;;24.50;68.40;;;;;;5051397;28;20028;-77
2021/06/18 00:47:50;;;;;;;11.52;7.70;;;24.60;68.30;;;;;;5050881;28;20079;-76
2021/06/18 00:50:17;;;;;;;9.52;7.25;;;24.50;68.20;;;;;;5051610;28;20029;-76
2021/06/18 00:52:43;;;;;;;10.55;7.20;;;24.50;68.30;;;;;;5052171;28;20021;-76
2021/06/18 00:55:10;;;;;;;10.35;7.03;;;24.50;68.30;;;;;;5050285;28;20342;-77
2021/06/18 00:57:37;;;;;;;11.77;7.88;;;24.50;68.20;;;;;;5050744;28;20078;-77
2021/06/18 01:00:08;;;;;;;11.10;7.60;;;24.60;68.20;;;;;;5052146;28;20046;-77
2021/06/18 01:02:33;;;;;;;;;;;24.50;68.20;;;;;;5051200;28;20029;-77
2021/06/18 01:05:00;;;;;;;12.52;8.40;;;24.50;68.20;;;;;;5052131;28;19901;-77
2021/06/18 01:07:32;;;;;;;11.88;8.00;;;24.40;68.30;;;;;;5051516;28;20043;-76
2021/06/18 01:10:52;;;;;;;11.88;8.57;;;24.40;68.60;;;;;;5051705;28;20029;-77
2021/06/18 01:13:36;;;;;;;13.50;8.85;;;24.40;68.80;;;;;;5028976;28;20026;-78
2021/06/18 01:16:14;;;;;;;11.70;8.55;;;24.30;68.70;;;;;;5046909;28;20531;-76
2021/06/18 01:18:47;;;;;;;15.23;9.93;;;24.30;69.10;;;;;;5052021;28;20014;-77
2021/06/18 01:21:15;;;;;;;12.57;9.43;;;24.20;69.30;;;;;;5049983;28;20079;-78
2021/06/18 01:24:07;;;;;;;12.98;8.82;;;24.20;69.40;;;;;;5050682;28;20021;-76
2021/06/18 01:27:11;;;;;;;15.18;9.32;;;24.20;69.50;;;;;;5051607;28;20053;-79
2021/06/18 01:29:42;;;;;;;13.23;9.13;;;24.20;69.40;;;;;;5051831;28;20025;-76
2021/06/18 01:32:12;;;;;;;15.27;9.77;;;24.10;69.40;;;;;;5051902;28;20024;-77
2021/06/18 01:34:40;;;;;;;15.10;8.85;;;24.10;69.40;;;;;;5052171;28;20468;-77
2021/06/18 01:37:12;;;;;;;17.45;9.13;;;24.10;69.50;;;;;;5051509;28;20415;-77
2021/06/18 01:39:40;;;;;;;14.07;9.00;;;24.00;69.60;;;;;;5050505;28;20025;-78
2021/06/18 01:42:08;;;;;;;12.73;8.98;;;24.00;69.80;;;;;;5052318;28;20016;-76
2021/06/18 01:44:35;;;;;;;13.15;8.00;;;24.00;69.70;;;;;;5055257;28;20032;-76
2021/06/18 01:47:04;;;;;;;13.38;8.65;;;24.00;69.80;;;;;;5054296;28;20436;-76
2021/06/18 01:49:33;;;;;;;10.75;7.47;;;24.00;69.70;;;;;;5053484;28;20267;-76
2021/06/18 01:52:00;;;;;;;13.00;7.97;;;24.00;69.60;;;;;;5055263;28;20368;-76
2021/06/18 01:54:28;;;;;;;11.00;7.70;;;24.10;69.70;;;;;;5054636;28;20016;-77
2021/06/18 01:56:55;;;;;;;12.70;8.20;;;24.10;69.60;;;;;;5055541;28;20017;-77
2021/06/18 01:59:28;;;;;;;11.48;8.25;;;24.10;69.60;;;;;;5053135;28;20028;-77
2021/06/18 02:01:54;;;;;;;13.93;7.75;;;24.10;69.60;;;;;;5055246;28;20028;-75
2021/06/18 02:04:20;;;;;;;11.27;8.57;;;24.10;69.50;;;;;;5054716;28;20025;-76
2021/06/18 02:06:49;;;;;;;14.15;8.60;;;24.10;69.50;;;;;;5055348;28;20342;-78
2021/06/18 02:09:16;;;;;;;13.88;8.30;;;24.10;69.60;;;;;;5054572;28;20032;-78
2021/06/18 02:11:42;;;;;;;12.20;8.43;;;24.10;69.70;;;;;;5054020;28;20021;-77
2021/06/18 02:14:12;;;;;;;13.02;8.48;;;24.10;69.60;;;;;;5055113;28;20013;-78
2021/06/18 02:16:41;;;;;;;12.70;8.48;;;24.00;69.60;;;;;;5055324;28;20028;-78
2021/06/18 02:19:12;;;;;;;11.02;8.25;;;24.10;69.80;;;;;;5055068;28;20075;-76
2021/06/18 02:21:39;;;;;;;13.18;8.93;;;24.10;69.80;;;;;;5053723;28;20027;-76
2021/06/18 02:24:05;;;;;;;15.13;9.32;;;24.10;69.60;;;;;;5055098;28;20013;-77
2021/06/18 02:26:31;;;;;;;16.25;10.00;;;24.10;69.50;;;;;;5054326;28;20332;-78
2021/06/18 02:28:58;;;;;;;12.35;8.48;;;24.10;69.60;;;;;;5054813;28;20041;-78
2021/06/18 02:31:25;;;;;;;15.13;9.75;;;24.10;69.60;;;;;;5052929;28;20051;-78
2021/06/18 02:33:51;;;;;;;16.13;9.80;;;24.10;69.70;;;;;;5054855;28;20070;-78
2021/06/18 02:36:20;;;;;;;14.77;9.35;;;24.00;69.90;;;;;;5054207;28;20092;-77
2021/06/18 02:38:48;;;;;;;13.48;9.27;;;24.00;70.00;;;;;;5054925;28;20056;-77
2021/06/18 02:41:14;;;;;;;13.85;9.13;;;24.00;69.90;;;;;;5054324;28;20017;-76
2021/06/18 02:43:40;;;;;;;13.57;9.23;;;24.00;70.10;;;;;;5053459;28;20461;-77
2021/06/18 02:46:06;;;;;;;16.27;9.88;;;24.00;70.10;;;;;;5053211;28;20024;-78
2021/06/18 02:48:39;;;;;;;11.75;8.73;;;24.00;70.20;;;;;;5053491;28;20045;-77
2021/06/18 02:51:24;;;;;;;14.23;9.18;;;23.90;70.20;;;;;;5054247;28;20029;-78
2021/06/18 02:54:33;;;;;;;14.65;8.73;;;23.80;70.40;;;;;;5054327;28;20226;-77
2021/06/18 02:57:03;;;;;;;14.15;9.13;;;23.80;70.60;;;;;;5045414;28;20393;-77
2021/06/18 02:59:43;;;;;;;14.35;9.65;;;23.80;70.60;;;;;;5053254;28;20461;-76
2021/06/18 03:02:15;;;;;;;15.88;9.15;;;23.80;70.70;;;;;;5054304;28;20523;-77
2021/06/18 03:04:43;;;;;;;13.85;9.45;;;23.80;70.70;;;;;;5054413;28;20346;-77
2021/06/18 03:07:14;;;;;;;13.13;8.85;;;23.80;70.80;;;;;;5052915;28;20024;-78
2021/06/18 03:09:46;;;;;;;14.38;9.52;;;23.80;70.90;;;;;;5053238;28;20361;-77
2021/06/18 03:12:13;;;;;;;12.70;7.63;;;23.80;71.00;;;;;;5052736;28;20025;-78
2021/06/18 03:14:44;;;;;;;14.23;9.23;;;23.80;70.80;;;;;;5053496;28;20013;-78
2021/06/18 03:17:13;;;;;;;;;;;23.80;70.80;;;;;;5054445;28;20017;-77
2021/06/18 03:19:45;;;;;;;15.40;8.68;;;23.80;70.80;;;;;;5053355;28;19901;-77
2021/06/18 03:22:12;;;;;;;11.88;8.10;;;23.80;71.00;;;;;;5053562;28;20016;-76
2021/06/18 03:24:39;;;;;;;11.60;8.57;;;23.70;71.00;;;;;;5051968;28;20037;-76
2021/06/18 03:27:05;;;;;;;17.75;8.60;;;23.70;71.10;;;;;;5054071;28;20451;-78
2021/06/18 03:29:32;;;;;;;14.80;9.25;;;23.70;71.20;;;;;;5053296;28;20032;-77
2021/06/18 03:32:01;;;;;;;14.57;9.77;;;23.70;71.30;;;;;;5052529;28;20021;-77
2021/06/18 03:34:28;;;;;;;14.07;9.05;;;23.70;71.40;;;;;;5053037;28;20072;-77
2021/06/18 03:36:55;;;;;;;13.98;8.68;;;23.70;71.40;;;;;;5053624;28;20025;-78
2021/06/18 03:39:22;;;;;;;13.73;9.68;;;23.70;71.20;;;;;;5052734;28;20028;-76
2021/06/18 03:41:48;;;;;;;14.30;9.77;;;23.80;71.20;;;;;;5053679;28;20103;-78
2021/06/18 03:44:17;;;;;;;14.73;10.00;;;23.80;71.20;;;;;;5053463;28;20066;-76
2021/06/18 03:46:45;;;;;;;15.95;10.18;;;23.80;71.20;;;;;;5052801;28;20491;-77
2021/06/18 03:49:12;;;;;;;12.63;9.13;;;23.80;71.20;;;;;;5053341;28;20445;-77
2021/06/18 03:51:38;;;;;;;17.17;10.23;;;23.90;71.00;;;;;;5051501;28;20319;-77
2021/06/18 03:54:05;;;;;;;16.35;9.45;;;23.90;70.80;;;;;;5053251;28;20104;-78
2021/06/18 03:56:31;;;;;;;15.00;10.02;;;24.00;70.70;;;;;;5051330;28;20107;-78
2021/06/18 03:58:58;;;;;;;14.43;9.60;;;24.00;70.50;;;;;;5053205;28;20021;-77
2021/06/18 04:01:26;;;;;;;16.08;9.95;;;24.00;70.60;;;;;;5051122;28;20117;-77
2021/06/18 04:03:53;;;;;;;16.27;9.77;;;24.10;70.50;;;;;;5051236;28;20017;-76
2021/06/18 04:06:20;;;;;;;15.65;10.20;;;24.10;70.50;;;;;;5053374;28;20025;-77
2021/06/18 04:08:46;;;;;;;16.98;10.25;;;24.10;70.60;;;;;;5052877;28;20017;-77
2021/06/18 04:11:13;;;;;;;13.13;9.27;;;24.10;70.60;;;;;;5051952;28;20145;-76
2021/06/18 04:13:41;;;;;;;17.20;10.88;;;24.20;70.70;;;;;;5052159;28;20104;-77
2021/06/18 04:16:08;;;;;;;20.25;12.32;;;24.20;70.40;;;;;;5052851;28;20088;-77
2021/06/18 04:18:36;;;;;;;19.95;13.77;;;24.20;71.20;;;;;;5052311;28;20025;-77
2021/06/18 04:21:04;;;;;;;19.80;13.65;;;24.00;71.90;;;;;;5045492;28;20017;-77
2021/06/18 04:23:30;;;;;;;19.40;14.18;;;23.90;72.30;;;;;;5049114;28;20024;-77
2021/06/18 04:25:58;;;;;;;15.85;11.18;;;23.60;73.40;;;;;;5052575;28;20350;-78
2021/06/18 04:28:25;;;;;;;15.00;10.65;;;23.10;75.60;;;;;;5051821;28;20484;-78
2021/06/18 04:30:51;;;;;;;16.02;11.07;;;22.90;77.50;;;;;;5052826;28;20426;-78
2021/06/18 04:33:17;;;;;;;13.63;8.90;;;22.90;78.70;;;;;;5051267;28;20028;-77
2021/06/18 04:35:43;;;;;;;14.70;8.93;;;23.00;78.30;;;;;;5051685;28;20483;-78
2021/06/18 04:38:08;;;;;;;15.77;9.57;;;23.10;78.40;;;;;;5052336;28;20028;-77
2021/06/18 04:40:34;;;;;;;13.90;9.18;;;23.20;77.90;;;;;;5050084;28;20013;-78
2021/06/18 04:43:01;;;;;;;17.60;12.45;;;23.20;77.50;;;;;;5052013;28;20032;-77
2021/06/18 04:45:26;;;;;;;16.98;11.18;;;23.10;77.60;;;;;;5047269;28;20017;-77
2021/06/18 04:47:57;;;;;;;16.92;10.70;;;23.10;77.90;;;;;;5032495;28;20052;-75
2021/06/18 04:50:23;;;;;;;15.68;11.07;;;23.10;77.80;;;;;;5030307;28;20048;-77
2021/06/18 04:52:49;;;;;;;15.13;10.32;;;23.10;78.70;;;;;;5032346;28;20022;-76
2021/06/18 04:55:17;;;;;;;13.95;9.43;;;23.00;78.70;;;;;;5028759;28;20017;-78
2021/06/18 04:57:47;;;;;;;15.90;10.20;;;22.90;78.90;;;;;;5027996;28;20021;-81
2021/06/18 05:00:14;;;;;;;20.08;12.18;;;22.80;82.80;;;;;;5028844;28;20057;-83
2021/06/18 05:02:40;;;;;;;23.88;12.35;;;22.50;85.90;;;;;;5029594;28;20017;-87
2021/06/18 05:05:06;;;;;;;20.45;13.38;;;22.10;88.30;;;;;;5029246;28;20461;-82
2021/06/18 05:07:32;;;;;;;23.90;13.27;;;21.90;91.70;;;;;;5027746;28;20101;-80
2021/06/18 05:09:57;;;;;;;25.80;13.90;;;21.80;92.40;;;;;;5029069;28;20025;-84
2021/06/18 05:12:23;;;;;;;26.42;14.63;;;21.70;93.90;;;;;;5029104;28;20025;-85
2021/06/18 05:14:49;;;;;;;22.42;13.80;;;21.70;95.20;;;;;;5029577;28;20424;-85
2021/06/18 05:17:15;;;;;;;20.65;13.75;;;21.70;94.70;;;;;;5033455;28;20341;-85
2021/06/18 05:19:41;;;;;;;18.08;12.40;;;21.70;94.70;;;;;;5046718;28;20021;-81
2021/06/18 05:22:07;;;;;;;26.52;16.17;;;21.70;95.10;;;;;;5052607;28;20029;-80
2021/06/18 05:24:33;;;;;;;19.92;13.02;;;21.70;95.20;;;;;;5050123;28;20029;-81
2021/06/18 05:26:59;;;;;;;31.15;16.60;;;21.70;96.10;;;;;;5050828;28;20021;-81
2021/06/18 05:29:25;;;;;;;30.40;18.17;;;21.80;96.10;;;;;;5051939;28;20032;-80
2021/06/18 05:31:50;;;;;;;29.17;18.40;;;21.80;96.00;;;;;;5050045;28;20016;-79
2021/06/18 05:34:16;;;;;;;29.40;19.92;;;21.80;95.90;;;;;;5051938;28;20018;-81
2021/06/18 05:36:44;;;;;;;28.40;15.80;;;21.90;96.20;;;;;;5050135;28;20021;-81
2021/06/18 05:39:13;;;;;;;30.00;19.52;;;22.00;95.90;;;;;;5051896;28;20021;-81
2021/06/18 05:41:39;;;;;;;35.08;20.95;;;22.10;95.70;;;;;;5049906;28;20009;-80
2021/06/18 05:44:05;;;;;;;34.10;20.77;;;22.20;95.70;;;;;;5051695;28;20112;-81
2021/06/18 05:46:31;;;;;;;32.53;20.23;;;22.30;95.40;;;;;;5049809;28;20021;-80
2021/06/18 05:48:57;;;;;;;43.83;23.27;;;22.30;95.50;;;;;;5051144;28;20405;-80
2021/06/18 05:51:23;;;;;;;35.15;20.95;;;22.30;95.50;;;;;;5051697;28;20098;-80
2021/06/18 05:53:49;;;;;;;36.75;21.35;;;22.30;95.50;;;;;;5049783;28;20517;-80
2021/06/18 05:56:14;;;;;;;31.95;19.77;;;22.30;95.50;;;;;;5051729;28;20511;-81
2021/06/18 05:58:40;;;;;;;33.75;20.85;;;22.30;95.40;;;;;;5049662;28;20017;-80
2021/06/18 06:01:06;;;;;;;34.35;19.80;;;22.30;95.60;;;;;;5051517;28;20079;-80
2021/06/18 06:03:33;;;;;;;31.40;19.92;;;22.30;95.50;;;;;;5049575;28;20032;-80
2021/06/18 06:05:59;;;;;;;37.33;21.35;;;22.40;95.50;;;;;;5051455;28;20050;-80
2021/06/18 06:08:25;;;;;;;29.10;18.85;;;22.50;95.30;;;;;;5049827;28;20017;-80
2021/06/18 06:10:51;;;;;;;33.05;20.60;;;22.50;95.40;;;;;;5049135;28;20074;-80
2021/06/18 06:13:18;;;;;;;32.72;21.88;;;22.50;95.20;;;;;;5051456;28;20013;-80
2021/06/18 06:15:43;;;;;;;33.28;21.48;;;22.50;95.30;;;;;;5049418;28;20021;-80
2021/06/18 06:18:09;;;;;;;34.92;23.65;;;22.50;95.20;;;;;;5051184;28;20550;-79
2021/06/18 06:20:37;;;;;;;29.63;19.40;;;22.50;95.30;;;;;;5049482;28;20053;-79
2021/06/18 06:23:03;;;;;;;30.83;19.27;;;22.60;95.20;;;;;;5051119;28;20025;-79
2021/06/18 06:25:28;;;;;;;31.88;20.38;;;22.60;95.20;;;;;;5049985;28;20028;-78
2021/06/18 06:27:54;;;;;;;34.33;21.20;;;22.80;95.00;;;;;;5050768;28;20107;-80
2021/06/18 06:30:20;;;;;;;36.85;22.58;;;22.90;94.80;;;;;;5054820;28;20032;-79
2021/06/18 06:32:46;;;;;;;34.88;23.00;;;23.00;94.50;;;;;;5052936;28;20048;-79
2021/06/18 06:35:11;;;;;;;36.42;20.83;;;23.20;94.30;;;;;;5053574;28;20421;-79
2021/06/18 06:37:37;;;;;;;28.38;18.08;;;23.30;94.00;;;;;;5054431;28;20070;-79
2021/06/18 06:40:03;;;;;;;32.15;20.48;;;23.40;93.80;;;;;;5054667;28;20033;-79
2021/06/18 06:42:29;;;;;;;33.95;21.75;;;23.50;93.80;;;;;;5053452;28;20353;-79
2021/06/18 06:44:55;;;;;;;29.50;20.02;;;23.50;93.60;;;;;;5054053;28;20506;-79
2021/06/18 06:47:20;;;;;;;31.88;21.33;;;23.60;93.70;;;;;;5053241;28;20025;-79
2021/06/18 06:49:47;;;;;;;31.02;19.95;;;23.60;93.50;;;;;;5052411;28;20108;-78
2021/06/18 06:52:12;;;;;;;31.55;20.58;;;23.60;93.40;;;;;;5054232;28;20025;-79
2021/06/18 06:54:38;;;;;;;28.27;18.95;;;23.70;93.30;;;;;;5052480;28;20492;-79
2021/06/18 06:57:04;;;;;;;29.17;18.40;;;23.70;93.30;;;;;;5053168;28;20029;-78
2021/06/18 06:59:30;;;;;;;30.13;20.17;;;23.80;93.20;;;;;;5054409;28;20032;-80
2021/06/18 07:01:55;;;;;;;29.48;19.33;;;23.80;93.10;;;;;;5052366;28;20020;-80
2021/06/18 07:04:21;;;;;;;24.63;16.42;;;23.90;93.00;;;;;;5054172;28;20021;-79
2021/06/18 07:06:46;;;;;;;31.70;19.05;;;23.90;93.00;;;;;;5052324;28;20044;-79
2021/06/18 07:09:14;;;;;;;25.30;16.70;;;23.90;92.90;;;;;;5054141;28;20063;-79
2021/06/18 07:11:40;;;;;;;27.05;16.85;;;23.90;92.90;;;;;;5051948;28;20461;-79
2021/06/18 07:14:06;;;;;;;27.92;17.30;;;23.90;92.80;;;;;;5052828;28;20052;-79
2021/06/18 07:16:31;;;;;;;26.33;17.45;;;24.00;92.90;;;;;;5053833;28;20429;-80
2021/06/18 07:18:57;;;;;;;25.17;17.35;;;24.10;92.50;;;;;;5052075;28;20024;-79
2021/06/18 07:21:23;;;;;;;22.08;16.25;;;24.20;92.30;;;;;;5053823;28;20031;-79
2021/06/18 07:23:48;;;;;;;27.45;18.23;;;24.30;92.20;;;;;;5053290;28;20484;-78
2021/06/18 07:26:14;;;;;;;26.58;17.60;;;24.40;92.00;;;;;;5053845;28;20025;-78
2021/06/18 07:28:40;;;;;;;25.83;17.08;;;24.40;91.50;;;;;;5051678;28;20020;-79
2021/06/18 07:31:05;;;;;;;24.80;18.20;;;24.40;91.40;;;;;;5053845;28;20052;-80
2021/06/18 07:33:34;;;;;;;23.45;16.55;;;24.40;91.50;;;;;;5053458;28;20032;-79
2021/06/18 07:36:00;;;;;;;25.88;17.55;;;24.40;91.40;;;;;;5052798;28;20025;-80
2021/06/18 07:38:26;;;;;;;27.50;17.40;;;24.50;91.40;;;;;;5053674;28;20020;-79
2021/06/18 07:40:51;;;;;;;27.17;18.30;;;24.50;91.30;;;;;;5050965;28;20020;-79
2021/06/18 07:43:17;;;;;;;30.80;18.23;;;24.60;91.30;;;;;;5053201;28;20506;-80
2021/06/18 07:45:43;;;;;;;26.45;18.63;;;24.50;91.30;;;;;;5052551;28;20032;-79
2021/06/18 07:48:09;;;;;;;29.77;19.20;;;24.50;91.30;;;;;;5053285;28;20021;-80
2021/06/18 07:50:36;;;;;;;26.10;17.50;;;24.40;91.40;;;;;;5052699;28;20099;-80
2021/06/18 07:53:02;;;;;;;32.08;20.08;;;24.30;91.60;;;;;;5053195;28;20009;-79
2021/06/18 07:55:29;;;;;;;30.48;20.77;;;24.30;91.70;;;;;;5053625;28;20025;-79
2021/06/18 07:57:55;;;;;;;29.83;20.20;;;24.20;91.30;;;;;;5051268;28;20017;-79
2021/06/18 08:00:21;;;;;;;26.73;18.33;;;24.10;91.30;;;;;;5051786;28;20528;-79
2021/06/18 08:02:47;;;;;;;28.40;17.75;;;24.10;91.30;;;;;;5051327;28;20040;-79
2021/06/18 08:05:14;;;;;;;28.33;19.60;;;24.00;91.30;;;;;;5052914;28;20117;-79
2021/06/18 08:07:40;;;;;;;28.88;17.98;;;24.00;91.30;;;;;;5051711;28;20025;-79
2021/06/18 08:10:07;;;;;;;30.63;19.02;;;23.90;91.30;;;;;;5054831;28;20025;-79
2021/06/18 08:12:33;;;;;;;29.08;18.80;;;23.90;91.40;;;;;;5052849;28;20116;-79
2021/06/18 08:14:59;;;;;;;27.55;19.33;;;23.80;91.40;;;;;;5050920;28;20059;-78
2021/06/18 08:17:25;;;;;;;30.58;20.50;;;23.80;91.50;;;;;;5051491;28;20017;-78
2021/06/18 08:19:50;;;;;;;28.00;18.45;;;23.80;91.50;;;;;;5052245;28;20473;-79
2021/06/18 08:22:16;;;;;;;31.67;20.27;;;23.80;91.50;;;;;;5051165;28;20116;-79
2021/06/18 08:24:43;;;;;;;26.42;18.67;;;23.80;91.50;;;;;;5050593;28;20021;-79
2021/06/18 08:27:09;;;;;;;27.10;18.58;;;23.70;91.60;;;;;;5052614;28;20449;-78
2021/06/18 08:29:35;;;;;;;27.60;19.55;;;23.80;91.60;;;;;;5051186;28;20059;-78
2021/06/18 08:32:01;;;;;;;32.83;21.88;;;23.70;91.60;;;;;;5052010;28;20086;-78
2021/06/18 08:34:26;;;;;;;29.35;19.10;;;23.70;91.60;;;;;;5051320;28;20125;-79
2021/06/18 08:36:52;;;;;;;25.70;18.20;;;23.70;91.50;;;;;;5050622;28;20114;-79
2021/06/18 08:39:18;;;;;;;30.42;20.13;;;23.60;91.60;;;;;;5051007;28;20017;-79
2021/06/18 08:41:44;;;;;;;28.80;19.20;;;23.60;91.60;;;;;;5051497;28;20035;-79
2021/06/18 08:44:10;;;;;;;26.35;18.38;;;23.70;91.50;;;;;;5051042;28;20049;-79
2021/06/18 08:46:35;;;;;;;29.42;19.48;;;23.80;91.30;;;;;;5051067;28;20094;-79
2021/06/18 08:49:01;;;;;;;26.30;17.95;;;23.80;91.20;;;;;;5051391;28;20347;-78
2021/06/18 08:51:28;;;;;;;28.20;19.80;;;24.00;91.10;;;;;;5050542;28;20041;-78
2021/06/18 08:53:54;;;;;;;26.02;17.75;;;24.10;90.90;;;;;;5050194;28;20064;-78
2021/06/18 08:56:20;;;;;;;25.40;16.67;;;24.30;90.50;;;;;;5051992;28;20047;-79
2021/06/18 08:58:45;;;;;;;23.80;16.10;;;24.50;90.40;;;;;;5049954;28;20029;-79
2021/06/18 09:01:11;;;;;;;26.88;18.33;;;24.70;90.10;;;;;;5052374;28;20024;-78
2021/06/18 09:03:45;;;;;;;24.95;17.48;;;24.80;89.70;;;;;;5050628;28;20112;-78
2021/06/18 09:06:20;;;;;;;31.15;19.45;;;25.00;89.30;;;;;;5051797;28;20017;-78
2021/06/18 09:08:46;;;;;;;24.00;16.95;;;25.10;89.10;;;;;;5049937;28;20086;-79
2021/06/18 09:11:12;;;;;;;24.70;17.02;;;25.20;88.80;;;;;;5050744;28;20029;-79
2021/06/18 09:13:38;;;;;;;25.35;17.83;;;25.20;88.40;;;;;;5051947;28;20413;-78
2021/06/18 09:16:05;;;;;;;28.00;19.23;;;25.30;88.10;;;;;;5049982;28;20078;-79
2021/06/18 09:18:36;;;;;;;29.08;19.10;;;25.30;87.80;;;;;;5050665;28;20013;-79
2021/06/18 09:21:02;;;;;;;25.98;18.88;;;25.20;87.40;;;;;;5050334;28;20412;-78
2021/06/18 09:23:36;;;;;;;27.42;17.00;;;25.20;87.10;;;;;;5051954;28;20097;-78
2021/06/18 09:26:28;;;;;;;30.42;17.83;;;25.10;87.20;;;;;;5051636;28;20025;-79
2021/06/18 09:29:09;;;;;;;26.77;15.82;;;25.20;87.20;;;;;;5051166;28;20049;-79
2021/06/18 09:31:45;;;;;;;23.02;16.80;;;25.40;86.90;;;;;;5050252;28;20048;-78
2021/06/18 09:34:13;;;;;;;23.10;16.50;;;25.60;86.20;;;;;;5050405;28;20449;-79
2021/06/18 09:36:41;;;;;;;24.45;16.73;;;25.60;86.30;;;;;;5050410;28;20048;-79
2021/06/18 09:39:13;;;;;;;23.63;15.98;;;25.50;86.10;;;;;;5051191;28;20114;-78
2021/06/18 09:41:40;;;;;;;24.02;16.13;;;25.50;86.60;;;;;;5051735;28;20527;-78
2021/06/18 09:44:18;;;;;;;22.83;16.58;;;25.50;86.80;;;;;;5049822;28;20394;-78
2021/06/18 09:46:53;;;;;;;25.27;15.05;;;25.40;86.80;;;;;;5050371;28;20040;-78
2021/06/18 09:49:27;;;;;;;20.58;15.13;;;25.50;86.30;;;;;;5033930;28;20127;-78
2021/06/18 09:52:00;;;;;;;21.60;15.57;;;25.60;85.80;;;;;;5051060;28;20047;-79
2021/06/18 09:54:31;;;;;;;22.13;15.32;;;25.60;85.70;;;;;;5052089;28;20025;-79
2021/06/18 09:57:37;;;;;;;20.20;14.90;;;25.60;85.60;;;;;;5051635;28;20032;-78
2021/06/18 10:00:16;;;;;;;19.35;13.35;;;25.70;85.40;;;;;;5048363;28;20108;-79
2021/06/18 10:02:47;;;;;;;19.20;14.45;;;25.70;85.20;;;;;;5051877;28;20107;-79
2021/06/18 10:05:14;;;;;;;17.98;11.55;;;25.70;84.70;;;;;;5055562;28;20009;-79
2021/06/18 10:07:41;;;;;;;18.52;12.55;;;25.70;84.60;;;;;;5056052;28;20070;-78
2021/06/18 10:10:16;;;;;;;20.20;13.15;;;25.80;84.20;;;;;;5053701;28;20256;-79
2021/06/18 10:12:42;;;;;;;17.35;12.43;;;25.90;84.30;;;;;;5053948;28;20458;-79
2021/06/18 10:15:11;;;;;;;19.48;12.18;;;25.90;83.10;;;;;;5054524;28;20380;-78
2021/06/18 10:17:39;;;;;;;17.15;12.75;;;26.00;82.90;;;;;;5055121;28;20472;-79
2021/06/18 10:20:11;;;;;;;20.30;14.20;;;26.00;82.90;;;;;;5053147;28;20351;-77
2021/06/18 10:22:53;;;;;;;17.70;13.23;;;26.10;82.10;;;;;;5053816;28;20017;-78
2021/06/18 10:25:44;;;;;;;21.15;14.18;;;26.20;81.60;;;;;;5053636;28;20101;-79
2021/06/18 10:28:17;;;;;;;18.10;12.45;;;26.20;81.10;;;;;;5052907;28;20450;-78
2021/06/18 10:30:47;;;;;;;17.52;12.48;;;26.30;80.90;;;;;;5053659;28;20024;-78
2021/06/18 10:33:28;;;;;;;19.33;12.85;;;26.30;80.40;;;;;;5053332;28;20361;-77
2021/06/18 10:36:01;;;;;;;18.98;13.80;;;26.40;80.40;;;;;;5052927;28;20032;-79
2021/06/18 10:38:30;;;;;;;17.65;13.88;;;26.40;80.10;;;;;;5053479;28;20036;-78
2021/06/18 10:41:04;;;;;;;16.05;11.73;;;26.50;79.90;;;;;;5052634;28;20063;-79
2021/06/18 10:43:46;;;;;;;17.80;13.38;;;26.60;80.00;;;;;;5053376;28;20021;-77
2021/06/18 10:46:20;;;;;;;20.48;13.00;;;26.60;79.90;;;;;;5052768;28;20514;-78
2021/06/18 10:48:55;;;;;;;19.70;13.45;;;26.70;79.80;;;;;;5053398;28;20020;-78
2021/06/18 10:51:29;;;;;;;17.75;13.35;;;26.80;79.50;;;;;;5054665;28;20040;-78
2021/06/18 10:54:02;;;;;;;16.10;12.18;;;26.80;79.30;;;;;;5052579;28;20021;-77
2021/06/18 10:56:46;;;;;;;20.13;13.18;;;26.90;79.10;;;;;;5054367;28;20013;-78
2021/06/18 10:59:30;;;;;;;25.08;16.05;;;27.10;78.90;;;;;;5053658;28;20013;-77
2021/06/18 11:01:57;;;;;;;20.13;14.25;;;27.30;78.20;;;;;;5053227;28;20021;-77
2021/06/18 11:04:44;;;;;;;18.48;13.40;;;27.50;77.40;;;;;;5052741;28;20191;-78
2021/06/18 11:07:24;;;;;;;24.58;14.60;;;27.70;76.40;;;;;;5052107;28;20167;-77
2021/06/18 11:09:54;;;;;;;;;;;27.80;76.30;;;;;;5053207;28;20060;-76
2021/06/18 11:12:22;;;;;;;20.58;13.65;;;27.80;76.20;;;;;;5054142;28;20378;-77
2021/06/18 11:15:01;;;;;;;23.17;15.15;;;27.90;76.00;;;;;;5052627;28;20021;-77
2021/06/18 11:17:44;;;;;;;21.23;15.77;;;28.00;75.70;;;;;;5053730;28;20013;-77
2021/06/18 11:20:10;;;;;;;22.95;15.27;;;27.90;75.90;;;;;;5051915;28;20457;-77
2021/06/18 11:22:46;;;;;;;23.75;15.88;;;28.00;76.10;;;;;;5053957;28;20019;-77
2021/06/18 11:25:30;;;;;;;21.23;14.88;;;28.00;76.10;;;;;;5051993;28;20017;-76
2021/06/18 11:28:19;;;;;;;23.27;16.33;;;28.10;76.00;;;;;;5053407;28;20020;-77
2021/06/18 11:30:55;;;;;;;22.90;16.17;;;28.20;75.90;;;;;;5052134;28;20041;-76
2021/06/18 11:33:45;;;;;;;27.10;16.70;;;28.30;75.80;;;;;;5053451;28;20017;-76
2021/06/18 11:36:16;;;;;;;20.67;14.95;;;28.50;74.90;;;;;;5050207;28;20033;-77
2021/06/18 11:38:42;;;;;;;19.77;14.23;;;28.60;74.10;;;;;;5052236;28;20491;-77
2021/06/18 11:41:11;;;;;;;20.77;15.57;;;28.70;74.00;;;;;;5051599;28;20086;-76
2021/06/18 11:43:39;;;;;;;21.55;15.45;;;28.90;74.30;;;;;;5052186;28;20052;-78
2021/06/18 11:46:05;;;;;;;19.80;15.25;;;29.00;74.20;;;;;;5051458;28;20115;-77
2021/06/18 11:48:32;;;;;;;17.75;12.90;;;29.10;73.10;;;;;;5053373;28;20092;-76
2021/06/18 11:50:58;;;;;;;24.23;13.27;;;29.40;73.00;;;;;;5052544;28;20531;-77
2021/06/18 11:53:34;;;;;;;19.23;14.35;;;29.50;72.70;;;;;;5051908;28;20099;-77
2021/06/18 11:56:04;;;;;;;19.67;14.25;;;29.70;72.20;;;;;;5052596;28;20021;-77
2021/06/18 11:58:31;;;;;;;;;;;29.80;71.50;;;;;;5052306;28;20049;-76
2021/06/18 12:00:57;;;;;;;17.65;13.02;;;29.90;71.30;;;;;;5051275;28;19991;-77
2021/06/18 12:03:33;;;;;;;17.02;12.52;;;30.00;69.90;;;;;;5051908;28;20026;-77
2021/06/18 12:06:12;;;;;;;15.10;10.50;;;30.00;70.20;;;;;;5051102;28;20360;-77
2021/06/18 12:08:38;;;;;;;13.02;9.77;;;30.10;70.10;;;;;;5053117;28;20465;-76
2021/06/18 12:11:14;;;;;;;14.38;11.00;;;30.20;69.50;;;;;;5052043;28;20031;-76
2021/06/18 12:14:00;;;;;;;15.13;9.68;;;30.30;69.40;;;;;;5051767;28;20064;-76
2021/06/18 12:16:27;;;;;;;13.43;10.38;;;30.50;69.40;;;;;;5051073;28;20025;-76
2021/06/18 12:18:53;;;;;;;11.98;10.02;;;30.60;68.90;;;;;;5052775;28;20020;-77
2021/06/18 12:21:28;;;;;;;16.25;9.48;;;30.70;68.20;;;;;;5050799;28;20013;-78
2021/06/18 12:24:05;;;;;;;11.95;8.07;;;30.80;67.60;;;;;;5043923;28;20037;-75
2021/06/18 12:26:31;;;;;;;13.50;9.10;;;30.90;67.30;;;;;;5033112;28;20112;-79
2021/06/18 12:29:02;;;;;;;11.57;8.43;;;31.00;67.20;;;;;;5030566;28;20056;-77
2021/06/18 12:31:28;;;;;;;9.50;7.15;;;31.10;66.60;;;;;;5032522;28;20025;-76
2021/06/18 12:33:54;;;;;;;10.73;6.40;;;31.20;63.80;;;;;;5032305;28;20132;-76
2021/06/18 12:36:20;;;;;;;7.80;5.40;;;31.20;63.00;;;;;;5031386;28;20040;-76
2021/06/18 12:38:48;;;;;;;7.72;5.57;;;31.30;62.40;;;;;;5030575;28;20025;-77
2021/06/18 12:41:30;;;;;;;9.05;5.63;;;31.40;62.40;;;;;;5030312;28;20017;-76
2021/06/18 12:44:03;;;;;;;8.13;6.13;;;31.60;62.20;;;;;;5031737;28;20029;-76